Juntura, Oregon
Current Conditions -  °F | °C
As of 9:53 AM on Saturday 25 Oct 2014 (Local Time) from KBNO Reporting Station
Clear Clear  
Wind Chill: 39°   Ceiling: Unl
Heat Index: 43°   Visibility: 10mi
Dew Point: 36°   Wind: 6mph
Humidity: 76%   Direction: 20°NNE
Pressure: 29.8"   Gusts: NA
Location:  43.74°N, 118.08°W
Report Text: KBNO 251553Z AUTO 02005KT 10SM CLR 06/02 A2980 RMK AO2 SLP087 T00610022
Loading
Personal Weather Stations






























Interactive Weather Map
Tropical Storm Tracking
New forecast layout! Learn more

10-Day Weather Forecast

Advertisements
Track Severe Weather on mobile